sensor_id;sensor_type;location;lat;lon;timestamp;P1;durP1;ratioP1;P2;durP2;ratioP2
47481;SDS011;33219;47.410;9.730;2023-05-07T00:00:12;5.08;;;2.00;;
47481;SDS011;33219;47.410;9.730;2023-05-07T00:02:41;2.85;;;1.90;;
47481;SDS011;33219;47.410;9.730;2023-05-07T00:05:10;3.70;;;2.00;;
47481;SDS011;33219;47.410;9.730;2023-05-07T00:07:37;4.70;;;2.08;;
47481;SDS011;33219;47.410;9.730;2023-05-07T00:10:06;2.83;;;1.85;;
47481;SDS011;33219;47.410;9.730;2023-05-07T00:12:34;3.87;;;1.80;;
47481;SDS011;33219;47.410;9.730;2023-05-07T00:15:02;2.98;;;1.90;;
47481;SDS011;33219;47.410;9.730;2023-05-07T00:17:30;4.08;;;1.90;;
47481;SDS011;33219;47.410;9.730;2023-05-07T00:19:59;3.12;;;1.70;;
47481;SDS011;33219;47.410;9.730;2023-05-07T00:22:27;3.30;;;1.95;;
47481;SDS011;33219;47.410;9.730;2023-05-07T00:24:55;4.15;;;1.80;;
47481;SDS011;33219;47.410;9.730;2023-05-07T00:27:24;3.40;;;2.00;;
47481;SDS011;33219;47.410;9.730;2023-05-07T00:29:52;3.65;;;1.90;;
47481;SDS011;33219;47.410;9.730;2023-05-07T00:32:19;5.47;;;2.08;;
47481;SDS011;33219;47.410;9.730;2023-05-07T00:34:47;2.33;;;1.77;;
47481;SDS011;33219;47.410;9.730;2023-05-07T00:37:15;3.22;;;1.70;;
47481;SDS011;33219;47.410;9.730;2023-05-07T00:39:42;4.10;;;2.00;;
47481;SDS011;33219;47.410;9.730;2023-05-07T00:42:10;3.65;;;1.80;;
47481;SDS011;33219;47.410;9.730;2023-05-07T00:44:37;3.67;;;1.82;;
47481;SDS011;33219;47.410;9.730;2023-05-07T00:47:05;2.98;;;1.77;;
47481;SDS011;33219;47.410;9.730;2023-05-07T00:49:40;2.58;;;1.95;;
47481;SDS011;33219;47.410;9.730;2023-05-07T00:52:13;4.20;;;1.70;;
47481;SDS011;33219;47.410;9.730;2023-05-07T00:54:42;4.47;;;1.80;;
47481;SDS011;33219;47.410;9.730;2023-05-07T00:57:10;3.30;;;1.82;;
47481;SDS011;33219;47.410;9.730;2023-05-07T00:59:38;2.30;;;1.75;;
47481;SDS011;33219;47.410;9.730;2023-05-07T01:02:06;2.37;;;1.72;;
47481;SDS011;33219;47.410;9.730;2023-05-07T01:04:34;3.55;;;1.80;;
47481;SDS011;33219;47.410;9.730;2023-05-07T01:07:02;3.33;;;1.72;;
47481;SDS011;33219;47.410;9.730;2023-05-07T01:09:31;2.50;;;1.77;;
47481;SDS011;33219;47.410;9.730;2023-05-07T01:12:00;2.50;;;1.52;;
47481;SDS011;33219;47.410;9.730;2023-05-07T01:14:29;3.02;;;1.80;;
47481;SDS011;33219;47.410;9.730;2023-05-07T01:16:58;3.98;;;1.92;;
47481;SDS011;33219;47.410;9.730;2023-05-07T01:19:26;2.95;;;1.85;;
47481;SDS011;33219;47.410;9.730;2023-05-07T01:21:57;3.65;;;1.92;;
47481;SDS011;33219;47.410;9.730;2023-05-07T01:24:26;2.87;;;1.77;;
47481;SDS011;33219;47.410;9.730;2023-05-07T01:26:54;4.20;;;2.25;;
47481;SDS011;33219;47.410;9.730;2023-05-07T01:29:21;3.77;;;2.05;;
47481;SDS011;33219;47.410;9.730;2023-05-07T01:31:49;3.47;;;1.80;;
47481;SDS011;33219;47.410;9.730;2023-05-07T01:34:19;2.75;;;1.77;;
47481;SDS011;33219;47.410;9.730;2023-05-07T01:36:48;4.65;;;1.70;;
47481;SDS011;33219;47.410;9.730;2023-05-07T01:39:16;3.30;;;2.00;;
47481;SDS011;33219;47.410;9.730;2023-05-07T01:41:44;2.75;;;1.80;;
47481;SDS011;33219;47.410;9.730;2023-05-07T01:44:12;2.98;;;1.67;;
47481;SDS011;33219;47.410;9.730;2023-05-07T01:46:41;3.72;;;1.85;;
47481;SDS011;33219;47.410;9.730;2023-05-07T01:49:08;2.80;;;1.70;;
47481;SDS011;33219;47.410;9.730;2023-05-07T01:51:36;2.98;;;1.57;;
47481;SDS011;33219;47.410;9.730;2023-05-07T01:54:04;2.60;;;1.77;;
47481;SDS011;33219;47.410;9.730;2023-05-07T01:56:32;4.37;;;1.70;;
47481;SDS011;33219;47.410;9.730;2023-05-07T01:58:59;3.12;;;1.72;;
47481;SDS011;33219;47.410;9.730;2023-05-07T02:01:27;2.85;;;1.85;;
47481;SDS011;33219;47.410;9.730;2023-05-07T02:03:55;3.87;;;1.80;;
47481;SDS011;33219;47.410;9.730;2023-05-07T02:06:23;4.70;;;1.72;;
47481;SDS011;33219;47.410;9.730;2023-05-07T02:08:50;2.85;;;1.70;;
47481;SDS011;33219;47.410;9.730;2023-05-07T02:11:18;2.58;;;1.62;;
47481;SDS011;33219;47.410;9.730;2023-05-07T02:13:45;3.25;;;1.85;;
47481;SDS011;33219;47.410;9.730;2023-05-07T02:16:13;3.12;;;1.80;;
47481;SDS011;33219;47.410;9.730;2023-05-07T02:18:41;2.27;;;1.60;;
47481;SDS011;33219;47.410;9.730;2023-05-07T02:21:08;3.40;;;1.90;;
47481;SDS011;33219;47.410;9.730;2023-05-07T02:23:36;3.22;;;2.17;;
47481;SDS011;33219;47.410;9.730;2023-05-07T02:26:03;3.75;;;2.02;;
47481;SDS011;33219;47.410;9.730;2023-05-07T02:28:31;2.98;;;2.00;;
47481;SDS011;33219;47.410;9.730;2023-05-07T02:31:02;2.33;;;1.80;;
47481;SDS011;33219;47.410;9.730;2023-05-07T02:33:30;2.40;;;1.70;;
47481;SDS011;33219;47.410;9.730;2023-05-07T02:36:04;3.02;;;1.87;;
47481;SDS011;33219;47.410;9.730;2023-05-07T02:38:34;2.52;;;1.87;;
47481;SDS011;33219;47.410;9.730;2023-05-07T02:41:01;1.98;;;1.70;;
47481;SDS011;33219;47.410;9.730;2023-05-07T02:43:29;3.12;;;1.80;;
47481;SDS011;33219;47.410;9.730;2023-05-07T02:46:00;3.77;;;1.52;;
47481;SDS011;33219;47.410;9.730;2023-05-07T02:48:28;2.45;;;1.80;;
47481;SDS011;33219;47.410;9.730;2023-05-07T02:50:56;4.28;;;1.50;;
47481;SDS011;33219;47.410;9.730;2023-05-07T02:53:24;3.47;;;1.77;;
47481;SDS011;33219;47.410;9.730;2023-05-07T02:55:53;3.83;;;2.00;;
47481;SDS011;33219;47.410;9.730;2023-05-07T02:58:20;2.33;;;1.60;;
47481;SDS011;33219;47.410;9.730;2023-05-07T03:00:48;3.92;;;1.90;;
47481;SDS011;33219;47.410;9.730;2023-05-07T03:03:16;2.05;;;1.70;;
47481;SDS011;33219;47.410;9.730;2023-05-07T03:05:43;2.67;;;1.70;;
47481;SDS011;33219;47.410;9.730;2023-05-07T03:08:11;4.10;;;1.70;;
47481;SDS011;33219;47.410;9.730;2023-05-07T03:10:39;4.17;;;2.00;;
47481;SDS011;33219;47.410;9.730;2023-05-07T03:13:06;3.60;;;2.00;;
47481;SDS011;33219;47.410;9.730;2023-05-07T03:15:34;3.15;;;1.67;;
47481;SDS011;33219;47.410;9.730;2023-05-07T03:18:02;6.22;;;2.30;;
47481;SDS011;33219;47.410;9.730;2023-05-07T03:20:29;5.42;;;2.30;;
47481;SDS011;33219;47.410;9.730;2023-05-07T03:22:57;4.50;;;2.08;;
47481;SDS011;33219;47.410;9.730;2023-05-07T03:25:25;3.62;;;1.95;;
47481;SDS011;33219;47.410;9.730;2023-05-07T03:27:52;3.87;;;1.98;;
47481;SDS011;33219;47.410;9.730;2023-05-07T03:30:20;4.40;;;2.00;;
47481;SDS011;33219;47.410;9.730;2023-05-07T03:32:47;3.92;;;1.95;;
47481;SDS011;33219;47.410;9.730;2023-05-07T03:35:15;3.33;;;1.65;;
47481;SDS011;33219;47.410;9.730;2023-05-07T03:37:43;5.65;;;2.08;;
47481;SDS011;33219;47.410;9.730;2023-05-07T03:40:11;3.37;;;1.80;;
47481;SDS011;33219;47.410;9.730;2023-05-07T03:42:38;2.52;;;1.70;;
47481;SDS011;33219;47.410;9.730;2023-05-07T03:45:07;4.60;;;1.90;;
47481;SDS011;33219;47.410;9.730;2023-05-07T03:47:35;2.52;;;2.02;;
47481;SDS011;33219;47.410;9.730;2023-05-07T03:50:03;5.40;;;2.33;;
47481;SDS011;33219;47.410;9.730;2023-05-07T03:52:31;2.58;;;1.80;;
47481;SDS011;33219;47.410;9.730;2023-05-07T03:54:58;6.80;;;2.00;;
47481;SDS011;33219;47.410;9.730;2023-05-07T03:57:26;2.67;;;1.98;;
47481;SDS011;33219;47.410;9.730;2023-05-07T03:59:54;3.00;;;1.82;;
47481;SDS011;33219;47.410;9.730;2023-05-07T04:02:21;3.80;;;1.72;;
47481;SDS011;33219;47.410;9.730;2023-05-07T04:04:49;4.05;;;1.75;;
47481;SDS011;33219;47.410;9.730;2023-05-07T04:07:16;2.60;;;1.70;;
47481;SDS011;33219;47.410;9.730;2023-05-07T04:09:44;2.85;;;1.72;;
47481;SDS011;33219;47.410;9.730;2023-05-07T04:12:11;2.42;;;1.75;;
47481;SDS011;33219;47.410;9.730;2023-05-07T04:14:39;2.98;;;1.70;;
47481;SDS011;33219;47.410;9.730;2023-05-07T04:17:06;4.25;;;1.90;;
47481;SDS011;33219;47.410;9.730;2023-05-07T04:19:36;4.47;;;1.57;;
47481;SDS011;33219;47.410;9.730;2023-05-07T04:22:03;3.62;;;1.75;;
47481;SDS011;33219;47.410;9.730;2023-05-07T04:24:31;3.05;;;1.95;;
47481;SDS011;33219;47.410;9.730;2023-05-07T04:26:59;3.58;;;1.90;;
47481;SDS011;33219;47.410;9.730;2023-05-07T04:29:27;2.67;;;1.80;;
47481;SDS011;33219;47.410;9.730;2023-05-07T04:31:55;3.92;;;1.80;;
47481;SDS011;33219;47.410;9.730;2023-05-07T04:34:22;2.83;;;1.92;;
47481;SDS011;33219;47.410;9.730;2023-05-07T04:36:50;3.72;;;1.70;;
47481;SDS011;33219;47.410;9.730;2023-05-07T04:39:17;4.30;;;1.85;;
47481;SDS011;33219;47.410;9.730;2023-05-07T04:41:45;2.50;;;1.70;;
47481;SDS011;33219;47.410;9.730;2023-05-07T04:44:13;3.72;;;1.77;;
47481;SDS011;33219;47.410;9.730;2023-05-07T04:46:40;4.22;;;1.70;;
47481;SDS011;33219;47.410;9.730;2023-05-07T04:49:08;3.10;;;1.52;;
47481;SDS011;33219;47.410;9.730;2023-05-07T04:51:35;2.60;;;1.82;;
47481;SDS011;33219;47.410;9.730;2023-05-07T04:54:04;2.80;;;1.50;;
47481;SDS011;33219;47.410;9.730;2023-05-07T04:56:31;2.47;;;1.50;;
47481;SDS011;33219;47.410;9.730;2023-05-07T04:58:59;2.98;;;1.60;;
47481;SDS011;33219;47.410;9.730;2023-05-07T05:01:26;1.75;;;1.50;;
47481;SDS011;33219;47.410;9.730;2023-05-07T05:03:54;1.80;;;1.37;;
47481;SDS011;33219;47.410;9.730;2023-05-07T05:06:21;3.52;;;1.70;;
47481;SDS011;33219;47.410;9.730;2023-05-07T05:08:49;2.35;;;1.42;;
47481;SDS011;33219;47.410;9.730;2023-05-07T05:11:16;2.33;;;1.60;;
47481;SDS011;33219;47.410;9.730;2023-05-07T05:13:44;2.55;;;1.37;;
47481;SDS011;33219;47.410;9.730;2023-05-07T05:16:13;3.45;;;1.70;;
47481;SDS011;33219;47.410;9.730;2023-05-07T05:18:41;2.12;;;1.30;;
47481;SDS011;33219;47.410;9.730;2023-05-07T05:21:09;3.20;;;1.50;;
47481;SDS011;33219;47.410;9.730;2023-05-07T05:23:36;2.95;;;1.52;;
47481;SDS011;33219;47.410;9.730;2023-05-07T05:26:04;2.58;;;1.62;;
47481;SDS011;33219;47.410;9.730;2023-05-07T05:28:32;3.80;;;1.72;;
47481;SDS011;33219;47.410;9.730;2023-05-07T05:30:59;4.37;;;1.60;;
47481;SDS011;33219;47.410;9.730;2023-05-07T05:33:27;2.77;;;1.70;;
47481;SDS011;33219;47.410;9.730;2023-05-07T05:35:55;6.20;;;3.90;;
47481;SDS011;33219;47.410;9.730;2023-05-07T05:38:22;4.83;;;3.92;;
47481;SDS011;33219;47.410;9.730;2023-05-07T05:40:50;5.15;;;2.55;;
47481;SDS011;33219;47.410;9.730;2023-05-07T05:43:17;2.60;;;1.67;;
47481;SDS011;33219;47.410;9.730;2023-05-07T05:45:45;3.72;;;2.00;;
47481;SDS011;33219;47.410;9.730;2023-05-07T05:48:12;2.75;;;1.72;;
47481;SDS011;33219;47.410;9.730;2023-05-07T05:50:41;2.50;;;1.67;;
47481;SDS011;33219;47.410;9.730;2023-05-07T05:53:09;4.05;;;2.08;;
47481;SDS011;33219;47.410;9.730;2023-05-07T05:55:36;3.45;;;1.57;;
47481;SDS011;33219;47.410;9.730;2023-05-07T05:58:04;5.03;;;1.52;;
47481;SDS011;33219;47.410;9.730;2023-05-07T06:00:32;2.50;;;1.45;;
47481;SDS011;33219;47.410;9.730;2023-05-07T06:02:59;3.35;;;1.60;;
47481;SDS011;33219;47.410;9.730;2023-05-07T06:05:27;2.83;;;1.30;;
47481;SDS011;33219;47.410;9.730;2023-05-07T06:07:55;2.75;;;1.62;;
47481;SDS011;33219;47.410;9.730;2023-05-07T06:10:22;3.92;;;1.57;;
47481;SDS011;33219;47.410;9.730;2023-05-07T06:12:50;1.95;;;1.50;;
47481;SDS011;33219;47.410;9.730;2023-05-07T06:15:17;3.10;;;1.47;;
47481;SDS011;33219;47.410;9.730;2023-05-07T06:17:45;2.33;;;1.30;;
47481;SDS011;33219;47.410;9.730;2023-05-07T06:20:12;2.15;;;1.45;;
47481;SDS011;33219;47.410;9.730;2023-05-07T06:22:40;2.92;;;1.62;;
47481;SDS011;33219;47.410;9.730;2023-05-07T06:25:08;3.30;;;1.45;;
47481;SDS011;33219;47.410;9.730;2023-05-07T06:27:35;2.72;;;1.65;;
47481;SDS011;33219;47.410;9.730;2023-05-07T06:30:05;2.55;;;1.70;;
47481;SDS011;33219;47.410;9.730;2023-05-07T06:32:33;3.22;;;1.65;;
47481;SDS011;33219;47.410;9.730;2023-05-07T06:35:01;2.90;;;1.72;;
47481;SDS011;33219;47.410;9.730;2023-05-07T06:37:30;2.72;;;1.52;;
47481;SDS011;33219;47.410;9.730;2023-05-07T06:39:57;3.60;;;1.65;;
47481;SDS011;33219;47.410;9.730;2023-05-07T06:42:25;3.37;;;1.80;;
47481;SDS011;33219;47.410;9.730;2023-05-07T06:44:52;4.12;;;1.85;;
47481;SDS011;33219;47.410;9.730;2023-05-07T06:47:20;3.30;;;1.55;;
47481;SDS011;33219;47.410;9.730;2023-05-07T06:49:48;2.20;;;1.52;;
47481;SDS011;33219;47.410;9.730;2023-05-07T06:52:15;2.35;;;1.60;;
47481;SDS011;33219;47.410;9.730;2023-05-07T06:54:43;3.95;;;1.70;;
47481;SDS011;33219;47.410;9.730;2023-05-07T06:57:10;3.45;;;1.75;;
47481;SDS011;33219;47.410;9.730;2023-05-07T06:59:38;1.85;;;1.47;;
47481;SDS011;33219;47.410;9.730;2023-05-07T07:02:06;2.60;;;1.70;;
47481;SDS011;33219;47.410;9.730;2023-05-07T07:04:34;2.45;;;1.60;;
47481;SDS011;33219;47.410;9.730;2023-05-07T07:07:02;2.60;;;1.80;;
47481;SDS011;33219;47.410;9.730;2023-05-07T07:09:29;2.98;;;1.90;;
47481;SDS011;33219;47.410;9.730;2023-05-07T07:11:57;2.85;;;1.67;;
47481;SDS011;33219;47.410;9.730;2023-05-07T07:14:25;2.65;;;1.50;;
47481;SDS011;33219;47.410;9.730;2023-05-07T07:16:53;3.25;;;1.72;;
47481;SDS011;33219;47.410;9.730;2023-05-07T07:19:20;3.45;;;1.37;;
47481;SDS011;33219;47.410;9.730;2023-05-07T07:21:48;2.67;;;1.57;;
47481;SDS011;33219;47.410;9.730;2023-05-07T07:24:15;3.40;;;1.62;;
47481;SDS011;33219;47.410;9.730;2023-05-07T07:26:45;1.95;;;1.60;;
47481;SDS011;33219;47.410;9.730;2023-05-07T07:29:12;3.37;;;1.65;;
47481;SDS011;33219;47.410;9.730;2023-05-07T07:31:40;3.42;;;1.70;;
47481;SDS011;33219;47.410;9.730;2023-05-07T07:34:07;3.70;;;1.67;;
47481;SDS011;33219;47.410;9.730;2023-05-07T07:36:35;2.75;;;1.82;;
47481;SDS011;33219;47.410;9.730;2023-05-07T07:39:02;2.50;;;1.50;;
47481;SDS011;33219;47.410;9.730;2023-05-07T07:41:30;4.50;;;1.90;;
47481;SDS011;33219;47.410;9.730;2023-05-07T07:43:57;2.85;;;1.70;;
47481;SDS011;33219;47.410;9.730;2023-05-07T07:46:25;3.47;;;1.82;;
47481;SDS011;33219;47.410;9.730;2023-05-07T07:48:53;2.27;;;1.62;;
47481;SDS011;33219;47.410;9.730;2023-05-07T07:51:20;3.22;;;1.82;;
47481;SDS011;33219;47.410;9.730;2023-05-07T07:53:48;1.90;;;1.60;;
47481;SDS011;33219;47.410;9.730;2023-05-07T07:56:15;2.72;;;1.70;;
47481;SDS011;33219;47.410;9.730;2023-05-07T07:58:43;2.20;;;1.50;;
47481;SDS011;33219;47.410;9.730;2023-05-07T08:01:10;2.10;;;1.40;;
47481;SDS011;33219;47.410;9.730;2023-05-07T08:03:38;2.67;;;1.57;;
47481;SDS011;33219;47.410;9.730;2023-05-07T08:06:06;3.22;;;1.50;;
47481;SDS011;33219;47.410;9.730;2023-05-07T08:08:33;3.12;;;1.60;;
47481;SDS011;33219;47.410;9.730;2023-05-07T08:11:01;3.85;;;1.65;;
47481;SDS011;33219;47.410;9.730;2023-05-07T08:13:29;3.02;;;1.35;;
47481;SDS011;33219;47.410;9.730;2023-05-07T08:15:56;3.52;;;1.60;;
47481;SDS011;33219;47.410;9.730;2023-05-07T08:18:24;2.47;;;1.60;;
47481;SDS011;33219;47.410;9.730;2023-05-07T08:20:54;1.77;;;1.30;;
47481;SDS011;33219;47.410;9.730;2023-05-07T08:23:22;2.15;;;1.45;;
47481;SDS011;33219;47.410;9.730;2023-05-07T08:25:49;1.90;;;1.45;;
47481;SDS011;33219;47.410;9.730;2023-05-07T08:28:17;2.27;;;1.40;;
47481;SDS011;33219;47.410;9.730;2023-05-07T08:30:47;2.95;;;1.50;;
47481;SDS011;33219;47.410;9.730;2023-05-07T08:33:14;1.98;;;1.40;;
47481;SDS011;33219;47.410;9.730;2023-05-07T08:35:42;2.72;;;1.50;;
47481;SDS011;33219;47.410;9.730;2023-05-07T08:38:09;1.82;;;1.30;;
47481;SDS011;33219;47.410;9.730;2023-05-07T08:40:37;3.15;;;1.50;;
47481;SDS011;33219;47.410;9.730;2023-05-07T08:43:07;1.90;;;1.60;;
47481;SDS011;33219;47.410;9.730;2023-05-07T08:45:36;3.67;;;1.62;;
47481;SDS011;33219;47.410;9.730;2023-05-07T08:48:13;3.00;;;1.40;;
47481;SDS011;33219;47.410;9.730;2023-05-07T08:50:42;1.85;;;1.35;;
47481;SDS011;33219;47.410;9.730;2023-05-07T08:53:10;1.82;;;1.40;;
47481;SDS011;33219;47.410;9.730;2023-05-07T08:55:38;2.30;;;1.30;;
47481;SDS011;33219;47.410;9.730;2023-05-07T08:58:06;2.35;;;1.50;;
47481;SDS011;33219;47.410;9.730;2023-05-07T09:00:34;1.72;;;1.32;;
47481;SDS011;33219;47.410;9.730;2023-05-07T09:03:03;1.72;;;1.17;;
47481;SDS011;33219;47.410;9.730;2023-05-07T09:05:31;2.67;;;1.40;;
47481;SDS011;33219;47.410;9.730;2023-05-07T09:07:59;2.37;;;1.42;;
47481;SDS011;33219;47.410;9.730;2023-05-07T09:10:29;2.02;;;1.32;;
47481;SDS011;33219;47.410;9.730;2023-05-07T09:12:58;2.05;;;1.47;;
47481;SDS011;33219;47.410;9.730;2023-05-07T09:15:26;2.67;;;1.40;;
47481;SDS011;33219;47.410;9.730;2023-05-07T09:17:59;4.35;;;1.50;;
47481;SDS011;33219;47.410;9.730;2023-05-07T09:20:32;2.40;;;1.27;;
47481;SDS011;33219;47.410;9.730;2023-05-07T09:23:00;4.50;;;2.40;;
47481;SDS011;33219;47.410;9.730;2023-05-07T09:25:28;2.60;;;2.10;;
47481;SDS011;33219;47.410;9.730;2023-05-07T09:27:56;3.90;;;2.00;;
47481;SDS011;33219;47.410;9.730;2023-05-07T09:30:27;3.20;;;2.15;;
47481;SDS011;33219;47.410;9.730;2023-05-07T09:33:02;4.12;;;3.00;;
47481;SDS011;33219;47.410;9.730;2023-05-07T09:35:30;3.92;;;2.47;;
47481;SDS011;33219;47.410;9.730;2023-05-07T09:37:58;3.17;;;2.70;;
47481;SDS011;33219;47.410;9.730;2023-05-07T09:40:29;3.17;;;2.45;;
47481;SDS011;33219;47.410;9.730;2023-05-07T09:43:07;3.42;;;2.65;;
47481;SDS011;33219;47.410;9.730;2023-05-07T09:48:05;3.75;;;2.60;;
47481;SDS011;33219;47.410;9.730;2023-05-07T09:50:39;2.85;;;2.20;;
47481;SDS011;33219;47.410;9.730;2023-05-07T09:53:07;2.98;;;2.40;;
47481;SDS011;33219;47.410;9.730;2023-05-07T09:55:36;5.28;;;2.50;;
47481;SDS011;33219;47.410;9.730;2023-05-07T09:58:05;6.03;;;2.67;;
47481;SDS011;33219;47.410;9.730;2023-05-07T10:00:33;4.22;;;2.60;;
47481;SDS011;33219;47.410;9.730;2023-05-07T10:03:01;3.70;;;2.80;;
47481;SDS011;33219;47.410;9.730;2023-05-07T10:05:31;3.95;;;2.47;;
47481;SDS011;33219;47.410;9.730;2023-05-07T10:08:00;3.75;;;2.52;;
47481;SDS011;33219;47.410;9.730;2023-05-07T10:10:28;3.45;;;2.60;;
47481;SDS011;33219;47.410;9.730;2023-05-07T10:12:57;3.58;;;2.52;;
47481;SDS011;33219;47.410;9.730;2023-05-07T10:15:25;5.62;;;2.45;;
47481;SDS011;33219;47.410;9.730;2023-05-07T10:17:53;3.25;;;2.40;;
47481;SDS011;33219;47.410;9.730;2023-05-07T10:20:21;4.20;;;2.30;;
47481;SDS011;33219;47.410;9.730;2023-05-07T10:22:48;3.37;;;2.22;;
47481;SDS011;33219;47.410;9.730;2023-05-07T10:25:21;3.45;;;2.47;;
47481;SDS011;33219;47.410;9.730;2023-05-07T10:27:49;3.50;;;2.67;;
47481;SDS011;33219;47.410;9.730;2023-05-07T10:31:07;3.20;;;2.40;;
47481;SDS011;33219;47.410;9.730;2023-05-07T10:32:55;3.85;;;2.30;;
47481;SDS011;33219;47.410;9.730;2023-05-07T10:35:29;3.52;;;2.52;;
47481;SDS011;33219;47.410;9.730;2023-05-07T10:37:58;2.85;;;2.20;;
47481;SDS011;33219;47.410;9.730;2023-05-07T10:40:26;3.80;;;2.33;;
47481;SDS011;33219;47.410;9.730;2023-05-07T10:42:57;4.20;;;2.15;;
47481;SDS011;33219;47.410;9.730;2023-05-07T10:45:33;5.15;;;2.40;;
47481;SDS011;33219;47.410;9.730;2023-05-07T10:48:15;4.15;;;2.45;;
47481;SDS011;33219;47.410;9.730;2023-05-07T10:50:44;2.87;;;1.98;;
47481;SDS011;33219;47.410;9.730;2023-05-07T10:58:23;3.00;;;2.10;;
47481;SDS011;33219;47.410;9.730;2023-05-07T11:01:01;3.37;;;2.33;;
47481;SDS011;33219;47.410;9.730;2023-05-07T11:03:29;3.98;;;2.33;;
47481;SDS011;33219;47.410;9.730;2023-05-07T11:06:13;3.67;;;2.40;;
47481;SDS011;33219;47.410;9.730;2023-05-07T11:08:57;4.83;;;2.40;;
47481;SDS011;33219;47.410;9.730;2023-05-07T11:17:09;4.33;;;2.50;;
47481;SDS011;33219;47.410;9.730;2023-05-07T11:19:53;2.70;;;2.25;;
47481;SDS011;33219;47.410;9.730;2023-05-07T11:25:05;3.52;;;2.50;;
47481;SDS011;33219;47.410;9.730;2023-05-07T11:27:33;4.62;;;2.62;;
47481;SDS011;33219;47.410;9.730;2023-05-07T11:30:01;3.47;;;2.12;;
47481;SDS011;33219;47.410;9.730;2023-05-07T11:32:30;4.62;;;2.30;;
47481;SDS011;33219;47.410;9.730;2023-05-07T11:34:59;5.10;;;2.05;;
47481;SDS011;33219;47.410;9.730;2023-05-07T11:37:27;3.12;;;2.08;;
47481;SDS011;33219;47.410;9.730;2023-05-07T11:40:07;3.30;;;2.10;;
47481;SDS011;33219;47.410;9.730;2023-05-07T11:42:37;2.77;;;1.87;;
47481;SDS011;33219;47.410;9.730;2023-05-07T11:45:06;3.17;;;1.82;;
47481;SDS011;33219;47.410;9.730;2023-05-07T11:47:34;4.62;;;1.90;;
47481;SDS011;33219;47.410;9.730;2023-05-07T11:50:07;3.75;;;2.00;;
47481;SDS011;33219;47.410;9.730;2023-05-07T11:52:33;3.45;;;2.30;;
47481;SDS011;33219;47.410;9.730;2023-05-07T11:55:01;3.72;;;2.15;;
47481;SDS011;33219;47.410;9.730;2023-05-07T11:57:33;4.35;;;2.20;;
47481;SDS011;33219;47.410;9.730;2023-05-07T12:00:01;3.92;;;2.00;;
47481;SDS011;33219;47.410;9.730;2023-05-07T12:02:30;2.50;;;2.00;;
47481;SDS011;33219;47.410;9.730;2023-05-07T12:04:57;3.98;;;2.12;;
47481;SDS011;33219;47.410;9.730;2023-05-07T12:07:28;2.75;;;1.90;;
47481;SDS011;33219;47.410;9.730;2023-05-07T12:09:57;4.15;;;1.98;;
47481;SDS011;33219;47.410;9.730;2023-05-07T12:12:25;3.45;;;2.10;;
47481;SDS011;33219;47.410;9.730;2023-05-07T12:14:52;4.10;;;2.00;;
47481;SDS011;33219;47.410;9.730;2023-05-07T12:17:20;3.50;;;2.02;;
47481;SDS011;33219;47.410;9.730;2023-05-07T12:19:48;2.92;;;1.80;;
47481;SDS011;33219;47.410;9.730;2023-05-07T12:22:16;3.05;;;1.80;;
47481;SDS011;33219;47.410;9.730;2023-05-07T12:24:49;3.72;;;1.95;;
47481;SDS011;33219;47.410;9.730;2023-05-07T12:27:18;3.15;;;2.10;;
47481;SDS011;33219;47.410;9.730;2023-05-07T12:29:48;2.25;;;1.77;;
47481;SDS011;33219;47.410;9.730;2023-05-07T12:32:17;2.85;;;1.85;;
47481;SDS011;33219;47.410;9.730;2023-05-07T12:34:47;3.52;;;2.45;;
47481;SDS011;33219;47.410;9.730;2023-05-07T12:37:22;3.80;;;2.17;;
47481;SDS011;33219;47.410;9.730;2023-05-07T12:40:10;2.85;;;2.08;;
47481;SDS011;33219;47.410;9.730;2023-05-07T12:42:39;3.15;;;1.80;;
47481;SDS011;33219;47.410;9.730;2023-05-07T12:45:08;2.77;;;1.98;;
47481;SDS011;33219;47.410;9.730;2023-05-07T12:47:44;3.27;;;1.70;;
47481;SDS011;33219;47.410;9.730;2023-05-07T12:50:15;3.70;;;1.90;;
47481;SDS011;33219;47.410;9.730;2023-05-07T12:52:48;4.05;;;2.02;;
47481;SDS011;33219;47.410;9.730;2023-05-07T12:55:14;2.72;;;2.17;;
47481;SDS011;33219;47.410;9.730;2023-05-07T12:57:47;2.15;;;1.70;;
47481;SDS011;33219;47.410;9.730;2023-05-07T13:00:17;3.95;;;1.90;;
47481;SDS011;33219;47.410;9.730;2023-05-07T13:02:46;3.50;;;1.90;;
47481;SDS011;33219;47.410;9.730;2023-05-07T13:05:14;3.60;;;1.80;;
47481;SDS011;33219;47.410;9.730;2023-05-07T13:07:51;3.58;;;2.02;;
47481;SDS011;33219;47.410;9.730;2023-05-07T13:10:12;3.77;;;2.02;;
47481;SDS011;33219;47.410;9.730;2023-05-07T13:12:40;3.10;;;2.00;;
47481;SDS011;33219;47.410;9.730;2023-05-07T13:15:07;2.72;;;2.10;;
47481;SDS011;33219;47.410;9.730;2023-05-07T13:17:35;3.42;;;2.12;;
47481;SDS011;33219;47.410;9.730;2023-05-07T13:20:03;5.25;;;2.10;;
47481;SDS011;33219;47.410;9.730;2023-05-07T13:22:31;4.55;;;2.27;;
47481;SDS011;33219;47.410;9.730;2023-05-07T13:24:59;4.25;;;2.17;;
47481;SDS011;33219;47.410;9.730;2023-05-07T13:27:26;2.65;;;2.10;;
47481;SDS011;33219;47.410;9.730;2023-05-07T13:29:56;3.40;;;2.40;;
47481;SDS011;33219;47.410;9.730;2023-05-07T13:32:23;4.55;;;2.15;;
47481;SDS011;33219;47.410;9.730;2023-05-07T13:34:51;3.62;;;2.58;;
47481;SDS011;33219;47.410;9.730;2023-05-07T13:37:18;3.40;;;2.65;;
47481;SDS011;33219;47.410;9.730;2023-05-07T13:39:46;3.22;;;2.25;;
47481;SDS011;33219;47.410;9.730;2023-05-07T13:42:14;3.20;;;2.17;;
47481;SDS011;33219;47.410;9.730;2023-05-07T13:44:41;4.05;;;2.55;;
47481;SDS011;33219;47.410;9.730;2023-05-07T13:47:10;3.70;;;2.50;;
47481;SDS011;33219;47.410;9.730;2023-05-07T13:49:38;4.03;;;2.22;;
47481;SDS011;33219;47.410;9.730;2023-05-07T13:52:05;3.95;;;2.50;;
47481;SDS011;33219;47.410;9.730;2023-05-07T13:54:33;3.65;;;2.40;;
47481;SDS011;33219;47.410;9.730;2023-05-07T13:57:00;4.20;;;2.40;;
47481;SDS011;33219;47.410;9.730;2023-05-07T13:59:28;5.67;;;2.67;;
47481;SDS011;33219;47.410;9.730;2023-05-07T14:01:55;4.05;;;2.47;;
47481;SDS011;33219;47.410;9.730;2023-05-07T14:04:23;3.85;;;2.47;;
47481;SDS011;33219;47.410;9.730;2023-05-07T14:06:51;3.22;;;2.50;;
47481;SDS011;33219;47.410;9.730;2023-05-07T14:09:19;4.50;;;2.67;;
47481;SDS011;33219;47.410;9.730;2023-05-07T14:11:46;2.90;;;2.12;;
47481;SDS011;33219;47.410;9.730;2023-05-07T14:14:16;4.42;;;2.52;;
47481;SDS011;33219;47.410;9.730;2023-05-07T14:16:44;5.35;;;2.50;;
47481;SDS011;33219;47.410;9.730;2023-05-07T14:19:12;4.42;;;2.47;;
47481;SDS011;33219;47.410;9.730;2023-05-07T14:21:39;6.83;;;2.60;;
47481;SDS011;33219;47.410;9.730;2023-05-07T14:24:07;4.17;;;2.60;;
47481;SDS011;33219;47.410;9.730;2023-05-07T14:26:35;3.70;;;2.50;;
47481;SDS011;33219;47.410;9.730;2023-05-07T14:29:03;3.30;;;2.40;;
47481;SDS011;33219;47.410;9.730;2023-05-07T14:31:30;3.85;;;2.70;;
47481;SDS011;33219;47.410;9.730;2023-05-07T14:33:59;4.35;;;2.72;;
47481;SDS011;33219;47.410;9.730;2023-05-07T14:36:26;3.58;;;2.50;;
47481;SDS011;33219;47.410;9.730;2023-05-07T14:38:55;3.80;;;2.60;;
47481;SDS011;33219;47.410;9.730;2023-05-07T14:41:25;4.25;;;2.87;;
47481;SDS011;33219;47.410;9.730;2023-05-07T14:43:52;4.95;;;3.05;;
47481;SDS011;33219;47.410;9.730;2023-05-07T14:46:20;4.12;;;2.72;;
47481;SDS011;33219;47.410;9.730;2023-05-07T14:48:47;3.52;;;2.80;;
47481;SDS011;33219;47.410;9.730;2023-05-07T14:51:15;3.90;;;3.10;;
47481;SDS011;33219;47.410;9.730;2023-05-07T14:53:42;6.05;;;3.10;;
47481;SDS011;33219;47.410;9.730;2023-05-07T14:56:10;4.20;;;2.90;;
47481;SDS011;33219;47.410;9.730;2023-05-07T14:58:37;3.83;;;2.90;;
47481;SDS011;33219;47.410;9.730;2023-05-07T15:01:05;4.67;;;3.17;;
47481;SDS011;33219;47.410;9.730;2023-05-07T15:03:33;5.97;;;3.40;;
47481;SDS011;33219;47.410;9.730;2023-05-07T15:06:01;5.12;;;3.40;;
47481;SDS011;33219;47.410;9.730;2023-05-07T15:08:29;5.25;;;3.35;;
47481;SDS011;33219;47.410;9.730;2023-05-07T15:10:57;5.00;;;3.50;;